sensor_id;sensor_type;location;lat;lon;timestamp;temperature;humidity
46898;DHT22;32646;50.958;6.258;2024-03-22T00:00:29;10.60;87.50
46898;DHT22;32646;50.958;6.258;2024-03-22T00:02:55;10.60;87.10
46898;DHT22;32646;50.958;6.258;2024-03-22T00:05:21;10.70;86.50
46898;DHT22;32646;50.958;6.258;2024-03-22T00:07:46;10.70;85.60
46898;DHT22;32646;50.958;6.258;2024-03-22T00:10:12;10.80;84.10
46898;DHT22;32646;50.958;6.258;2024-03-22T00:12:38;10.80;83.10
46898;DHT22;32646;50.958;6.258;2024-03-22T00:15:04;10.90;81.50
46898;DHT22;32646;50.958;6.258;2024-03-22T00:17:30;10.80;81.80
46898;DHT22;32646;50.958;6.258;2024-03-22T00:19:55;10.90;82.50
46898;DHT22;32646;50.958;6.258;2024-03-22T00:22:21;10.90;81.30
46898;DHT22;32646;50.958;6.258;2024-03-22T00:24:46;10.90;81.30
46898;DHT22;32646;50.958;6.258;2024-03-22T00:27:12;11.00;80.20
46898;DHT22;32646;50.958;6.258;2024-03-22T00:29:38;11.00;78.90
46898;DHT22;32646;50.958;6.258;2024-03-22T00:32:04;11.00;78.90
46898;DHT22;32646;50.958;6.258;2024-03-22T00:34:30;11.00;78.20
46898;DHT22;32646;50.958;6.258;2024-03-22T00:36:56;11.10;76.50
46898;DHT22;32646;50.958;6.258;2024-03-22T00:39:21;11.20;74.00
46898;DHT22;32646;50.958;6.258;2024-03-22T00:41:47;11.20;73.90
46898;DHT22;32646;50.958;6.258;2024-03-22T00:44:13;11.20;73.10
46898;DHT22;32646;50.958;6.258;2024-03-22T00:46:38;11.30;71.00
46898;DHT22;32646;50.958;6.258;2024-03-22T00:49:04;11.30;72.10
46898;DHT22;32646;50.958;6.258;2024-03-22T00:51:30;11.40;70.90
46898;DHT22;32646;50.958;6.258;2024-03-22T00:53:55;11.40;70.90
46898;DHT22;32646;50.958;6.258;2024-03-22T00:56:21;11.50;70.00
46898;DHT22;32646;50.958;6.258;2024-03-22T00:58:47;11.50;69.00
46898;DHT22;32646;50.958;6.258;2024-03-22T01:01:13;11.50;68.40
46898;DHT22;32646;50.958;6.258;2024-03-22T01:03:38;11.50;68.70
46898;DHT22;32646;50.958;6.258;2024-03-22T01:06:04;11.50;68.40
46898;DHT22;32646;50.958;6.258;2024-03-22T01:08:30;11.50;67.70
46898;DHT22;32646;50.958;6.258;2024-03-22T01:10:55;11.50;68.00
46898;DHT22;32646;50.958;6.258;2024-03-22T01:13:21;11.50;67.50
46898;DHT22;32646;50.958;6.258;2024-03-22T01:15:47;11.50;66.90
46898;DHT22;32646;50.958;6.258;2024-03-22T01:18:13;11.50;66.50
46898;DHT22;32646;50.958;6.258;2024-03-22T01:20:38;11.60;65.90
46898;DHT22;32646;50.958;6.258;2024-03-22T01:23:04;11.50;67.00
46898;DHT22;32646;50.958;6.258;2024-03-22T01:25:30;11.50;67.70
46898;DHT22;32646;50.958;6.258;2024-03-22T01:27:56;11.40;70.10
46898;DHT22;32646;50.958;6.258;2024-03-22T01:30:22;11.30;71.90
46898;DHT22;32646;50.958;6.258;2024-03-22T01:32:47;11.30;73.60
46898;DHT22;32646;50.958;6.258;2024-03-22T01:35:13;11.20;75.70
46898;DHT22;32646;50.958;6.258;2024-03-22T01:37:39;11.20;76.70
46898;DHT22;32646;50.958;6.258;2024-03-22T01:40:05;11.30;77.40
46898;DHT22;32646;50.958;6.258;2024-03-22T01:42:31;11.30;77.10
46898;DHT22;32646;50.958;6.258;2024-03-22T01:44:56;11.30;77.90
46898;DHT22;32646;50.958;6.258;2024-03-22T01:47:22;11.40;76.40
46898;DHT22;32646;50.958;6.258;2024-03-22T01:49:51;11.40;76.50
46898;DHT22;32646;50.958;6.258;2024-03-22T01:52:19;11.40;75.90
46898;DHT22;32646;50.958;6.258;2024-03-22T01:54:44;11.40;75.60
46898;DHT22;32646;50.958;6.258;2024-03-22T01:57:10;11.40;75.20
46898;DHT22;32646;50.958;6.258;2024-03-22T01:59:36;11.40;74.10
46898;DHT22;32646;50.958;6.258;2024-03-22T02:02:03;11.40;73.80
46898;DHT22;32646;50.958;6.258;2024-03-22T02:04:28;11.40;73.70
46898;DHT22;32646;50.958;6.258;2024-03-22T02:06:54;11.40;73.40
46898;DHT22;32646;50.958;6.258;2024-03-22T02:09:20;11.40;75.80
46898;DHT22;32646;50.958;6.258;2024-03-22T02:11:46;11.30;77.70
46898;DHT22;32646;50.958;6.258;2024-03-22T02:14:12;11.40;77.10
46898;DHT22;32646;50.958;6.258;2024-03-22T02:16:40;11.30;78.20
46898;DHT22;32646;50.958;6.258;2024-03-22T02:19:06;11.40;77.00
46898;DHT22;32646;50.958;6.258;2024-03-22T02:21:32;11.50;74.00
46898;DHT22;32646;50.958;6.258;2024-03-22T02:23:57;11.60;71.40
46898;DHT22;32646;50.958;6.258;2024-03-22T02:26:23;11.60;69.10
46898;DHT22;32646;50.958;6.258;2024-03-22T02:28:49;11.70;67.10
46898;DHT22;32646;50.958;6.258;2024-03-22T02:31:14;11.70;66.20
46898;DHT22;32646;50.958;6.258;2024-03-22T02:33:40;11.80;65.70
46898;DHT22;32646;50.958;6.258;2024-03-22T02:36:06;11.80;65.50
46898;DHT22;32646;50.958;6.258;2024-03-22T02:38:31;11.80;65.60
46898;DHT22;32646;50.958;6.258;2024-03-22T02:40:58;11.80;66.10
46898;DHT22;32646;50.958;6.258;2024-03-22T02:43:24;11.70;67.40
46898;DHT22;32646;50.958;6.258;2024-03-22T02:45:49;11.70;68.90
46898;DHT22;32646;50.958;6.258;2024-03-22T02:48:15;11.70;69.10
46898;DHT22;32646;50.958;6.258;2024-03-22T02:50:41;11.70;69.50
46898;DHT22;32646;50.958;6.258;2024-03-22T02:53:07;11.70;71.30
46898;DHT22;32646;50.958;6.258;2024-03-22T02:55:39;11.70;71.30
46898;DHT22;32646;50.958;6.258;2024-03-22T02:58:06;11.70;71.90
46898;DHT22;32646;50.958;6.258;2024-03-22T03:00:36;11.70;70.90
46898;DHT22;32646;50.958;6.258;2024-03-22T03:03:02;11.80;69.70
46898;DHT22;32646;50.958;6.258;2024-03-22T03:05:28;11.80;67.90
46898;DHT22;32646;50.958;6.258;2024-03-22T03:07:54;11.90;66.50
46898;DHT22;32646;50.958;6.258;2024-03-22T03:10:19;11.90;67.40
46898;DHT22;32646;50.958;6.258;2024-03-22T03:12:45;11.90;68.00
46898;DHT22;32646;50.958;6.258;2024-03-22T03:15:11;11.80;68.40
46898;DHT22;32646;50.958;6.258;2024-03-22T03:17:36;11.90;66.70
46898;DHT22;32646;50.958;6.258;2024-03-22T03:20:03;11.80;67.70
46898;DHT22;32646;50.958;6.258;2024-03-22T03:22:29;11.90;65.30
46898;DHT22;32646;50.958;6.258;2024-03-22T03:24:54;11.90;63.00
46898;DHT22;32646;50.958;6.258;2024-03-22T03:27:20;11.90;62.60
46898;DHT22;32646;50.958;6.258;2024-03-22T03:29:46;12.00;61.50
46898;DHT22;32646;50.958;6.258;2024-03-22T03:32:11;12.00;61.40
46898;DHT22;32646;50.958;6.258;2024-03-22T03:34:37;12.00;59.60
46898;DHT22;32646;50.958;6.258;2024-03-22T03:37:03;12.00;57.80
46898;DHT22;32646;50.958;6.258;2024-03-22T03:39:28;12.10;57.20
46898;DHT22;32646;50.958;6.258;2024-03-22T03:41:54;12.10;55.10
46898;DHT22;32646;50.958;6.258;2024-03-22T03:44:20;12.00;56.30
46898;DHT22;32646;50.958;6.258;2024-03-22T03:46:46;12.00;54.80
46898;DHT22;32646;50.958;6.258;2024-03-22T03:49:11;12.10;53.70
46898;DHT22;32646;50.958;6.258;2024-03-22T03:51:37;12.10;52.80
46898;DHT22;32646;50.958;6.258;2024-03-22T03:54:03;12.00;54.00
46898;DHT22;32646;50.958;6.258;2024-03-22T03:56:28;11.90;52.90
46898;DHT22;32646;50.958;6.258;2024-03-22T03:58:54;11.90;53.40
46898;DHT22;32646;50.958;6.258;2024-03-22T04:01:20;11.90;52.90
46898;DHT22;32646;50.958;6.258;2024-03-22T04:03:45;12.00;51.90
46898;DHT22;32646;50.958;6.258;2024-03-22T04:06:11;11.90;52.20
46898;DHT22;32646;50.958;6.258;2024-03-22T04:08:37;11.90;51.40
46898;DHT22;32646;50.958;6.258;2024-03-22T04:11:02;11.80;53.30
46898;DHT22;32646;50.958;6.258;2024-03-22T04:13:28;11.80;53.20
46898;DHT22;32646;50.958;6.258;2024-03-22T04:15:54;11.80;52.30
46898;DHT22;32646;50.958;6.258;2024-03-22T04:18:23;11.80;52.90
46898;DHT22;32646;50.958;6.258;2024-03-22T04:20:59;11.80;51.80
46898;DHT22;32646;50.958;6.258;2024-03-22T04:23:25;11.90;50.20
46898;DHT22;32646;50.958;6.258;2024-03-22T04:25:55;11.90;49.70
46898;DHT22;32646;50.958;6.258;2024-03-22T04:28:21;11.90;49.60
46898;DHT22;32646;50.958;6.258;2024-03-22T04:31:10;11.90;50.00
46898;DHT22;32646;50.958;6.258;2024-03-22T04:33:37;12.00;46.90
46898;DHT22;32646;50.958;6.258;2024-03-22T04:36:03;12.00;48.10
46898;DHT22;32646;50.958;6.258;2024-03-22T04:38:30;12.00;48.40
46898;DHT22;32646;50.958;6.258;2024-03-22T04:40:56;11.90;48.30
46898;DHT22;32646;50.958;6.258;2024-03-22T04:43:23;12.00;48.10
46898;DHT22;32646;50.958;6.258;2024-03-22T04:45:49;12.00;48.00
46898;DHT22;32646;50.958;6.258;2024-03-22T04:48:17;12.00;49.90
46898;DHT22;32646;50.958;6.258;2024-03-22T04:50:44;12.00;49.60
46898;DHT22;32646;50.958;6.258;2024-03-22T04:53:10;12.00;48.50
46898;DHT22;32646;50.958;6.258;2024-03-22T04:55:36;12.10;48.40
46898;DHT22;32646;50.958;6.258;2024-03-22T04:58:02;12.00;49.10
46898;DHT22;32646;50.958;6.258;2024-03-22T05:00:28;12.00;49.40
46898;DHT22;32646;50.958;6.258;2024-03-22T05:02:54;12.10;49.30
46898;DHT22;32646;50.958;6.258;2024-03-22T05:05:20;12.00;50.20
46898;DHT22;32646;50.958;6.258;2024-03-22T05:07:45;12.10;49.50
46898;DHT22;32646;50.958;6.258;2024-03-22T05:10:12;12.00;51.30
46898;DHT22;32646;50.958;6.258;2024-03-22T05:12:38;12.00;51.50
46898;DHT22;32646;50.958;6.258;2024-03-22T05:15:04;12.00;51.20
46898;DHT22;32646;50.958;6.258;2024-03-22T05:17:30;12.00;52.70
46898;DHT22;32646;50.958;6.258;2024-03-22T05:19:56;12.10;52.20
46898;DHT22;32646;50.958;6.258;2024-03-22T05:22:21;12.00;53.70
46898;DHT22;32646;50.958;6.258;2024-03-22T05:24:47;12.00;54.40
46898;DHT22;32646;50.958;6.258;2024-03-22T05:27:13;12.10;53.00
46898;DHT22;32646;50.958;6.258;2024-03-22T05:29:38;12.10;52.70
46898;DHT22;32646;50.958;6.258;2024-03-22T05:32:04;12.10;52.90
46898;DHT22;32646;50.958;6.258;2024-03-22T05:34:30;12.10;52.60
46898;DHT22;32646;50.958;6.258;2024-03-22T05:36:56;12.10;52.30
46898;DHT22;32646;50.958;6.258;2024-03-22T05:39:21;12.10;52.10
46898;DHT22;32646;50.958;6.258;2024-03-22T05:41:47;12.20;51.50
46898;DHT22;32646;50.958;6.258;2024-03-22T05:44:13;12.20;50.50
46898;DHT22;32646;50.958;6.258;2024-03-22T05:46:38;12.30;48.80
46898;DHT22;32646;50.958;6.258;2024-03-22T05:49:04;12.30;48.90
46898;DHT22;32646;50.958;6.258;2024-03-22T05:51:30;12.30;50.30
46898;DHT22;32646;50.958;6.258;2024-03-22T05:53:56;12.30;51.20
46898;DHT22;32646;50.958;6.258;2024-03-22T05:56:22;12.30;51.70
46898;DHT22;32646;50.958;6.258;2024-03-22T05:58:48;12.20;53.20
46898;DHT22;32646;50.958;6.258;2024-03-22T06:01:13;12.20;55.00
46898;DHT22;32646;50.958;6.258;2024-03-22T06:03:39;12.20;54.30
46898;DHT22;32646;50.958;6.258;2024-03-22T06:06:05;12.20;55.50
46898;DHT22;32646;50.958;6.258;2024-03-22T06:08:30;12.10;56.80
46898;DHT22;32646;50.958;6.258;2024-03-22T06:10:56;12.20;54.50
46898;DHT22;32646;50.958;6.258;2024-03-22T06:13:22;12.20;56.10
46898;DHT22;32646;50.958;6.258;2024-03-22T06:15:50;12.10;57.80
46898;DHT22;32646;50.958;6.258;2024-03-22T06:18:16;12.20;57.00
46898;DHT22;32646;50.958;6.258;2024-03-22T06:20:42;12.20;56.80
46898;DHT22;32646;50.958;6.258;2024-03-22T06:23:08;12.20;57.20
46898;DHT22;32646;50.958;6.258;2024-03-22T06:25:34;12.20;59.10
46898;DHT22;32646;50.958;6.258;2024-03-22T06:28:00;12.30;56.70
46898;DHT22;32646;50.958;6.258;2024-03-22T06:30:26;12.30;57.10
46898;DHT22;32646;50.958;6.258;2024-03-22T06:32:52;12.30;56.00
46898;DHT22;32646;50.958;6.258;2024-03-22T06:35:18;12.40;56.20
46898;DHT22;32646;50.958;6.258;2024-03-22T06:37:43;12.40;58.70
46898;DHT22;32646;50.958;6.258;2024-03-22T06:40:09;12.50;55.90
46898;DHT22;32646;50.958;6.258;2024-03-22T06:42:35;12.40;58.40
46898;DHT22;32646;50.958;6.258;2024-03-22T06:45:02;12.50;58.30
46898;DHT22;32646;50.958;6.258;2024-03-22T06:47:28;12.40;58.90
46898;DHT22;32646;50.958;6.258;2024-03-22T06:49:54;12.50;59.20
46898;DHT22;32646;50.958;6.258;2024-03-22T06:52:19;12.60;56.60
46898;DHT22;32646;50.958;6.258;2024-03-22T06:54:46;12.60;54.20
46898;DHT22;32646;50.958;6.258;2024-03-22T06:57:11;12.60;54.70
46898;DHT22;32646;50.958;6.258;2024-03-22T06:59:37;12.60;52.10
46898;DHT22;32646;50.958;6.258;2024-03-22T07:02:03;12.60;51.00
46898;DHT22;32646;50.958;6.258;2024-03-22T07:04:28;12.60;51.10
46898;DHT22;32646;50.958;6.258;2024-03-22T07:06:54;12.60;50.20
46898;DHT22;32646;50.958;6.258;2024-03-22T07:09:20;12.60;49.70
46898;DHT22;32646;50.958;6.258;2024-03-22T07:11:45;12.60;49.20
46898;DHT22;32646;50.958;6.258;2024-03-22T07:14:11;12.70;48.80
46898;DHT22;32646;50.958;6.258;2024-03-22T07:16:37;12.80;47.60
46898;DHT22;32646;50.958;6.258;2024-03-22T07:19:03;12.80;45.50
46898;DHT22;32646;50.958;6.258;2024-03-22T07:21:29;12.80;47.20
46898;DHT22;32646;50.958;6.258;2024-03-22T07:23:55;12.90;46.70
46898;DHT22;32646;50.958;6.258;2024-03-22T07:26:21;12.80;44.40
46898;DHT22;32646;50.958;6.258;2024-03-22T07:28:46;12.80;44.40
46898;DHT22;32646;50.958;6.258;2024-03-22T07:31:12;12.70;45.70
46898;DHT22;32646;50.958;6.258;2024-03-22T07:33:39;12.70;45.60
46898;DHT22;32646;50.958;6.258;2024-03-22T07:36:05;12.80;45.40
46898;DHT22;32646;50.958;6.258;2024-03-22T07:38:31;12.80;45.10
46898;DHT22;32646;50.958;6.258;2024-03-22T07:40:57;12.90;45.10
46898;DHT22;32646;50.958;6.258;2024-03-22T07:43:22;12.90;45.90
46898;DHT22;32646;50.958;6.258;2024-03-22T07:45:48;13.00;44.80
46898;DHT22;32646;50.958;6.258;2024-03-22T07:48:14;13.10;45.40
46898;DHT22;32646;50.958;6.258;2024-03-22T07:50:40;13.20;44.70
46898;DHT22;32646;50.958;6.258;2024-03-22T07:53:05;13.20;43.20
46898;DHT22;32646;50.958;6.258;2024-03-22T07:55:31;13.30;43.10
46898;DHT22;32646;50.958;6.258;2024-03-22T07:57:56;13.30;41.70
46898;DHT22;32646;50.958;6.258;2024-03-22T08:00:22;13.30;42.90
46898;DHT22;32646;50.958;6.258;2024-03-22T08:02:48;13.20;41.10
46898;DHT22;32646;50.958;6.258;2024-03-22T08:05:14;13.30;41.90
46898;DHT22;32646;50.958;6.258;2024-03-22T08:07:39;13.30;41.80
46898;DHT22;32646;50.958;6.258;2024-03-22T08:10:05;13.30;46.20
46898;DHT22;32646;50.958;6.258;2024-03-22T08:12:31;13.20;43.50
46898;DHT22;32646;50.958;6.258;2024-03-22T08:14:57;13.20;43.40
46898;DHT22;32646;50.958;6.258;2024-03-22T08:17:23;13.30;39.80
46898;DHT22;32646;50.958;6.258;2024-03-22T08:19:48;13.30;40.50
46898;DHT22;32646;50.958;6.258;2024-03-22T08:22:14;13.30;39.60
46898;DHT22;32646;50.958;6.258;2024-03-22T08:24:40;13.30;44.70
46898;DHT22;32646;50.958;6.258;2024-03-22T08:27:05;13.30;39.50
46898;DHT22;32646;50.958;6.258;2024-03-22T08:29:31;13.30;37.50
46898;DHT22;32646;50.958;6.258;2024-03-22T08:31:57;13.40;37.80
46898;DHT22;32646;50.958;6.258;2024-03-22T08:34:22;13.40;36.30
46898;DHT22;32646;50.958;6.258;2024-03-22T08:36:48;13.40;36.60
46898;DHT22;32646;50.958;6.258;2024-03-22T08:39:14;13.60;36.80
46898;DHT22;32646;50.958;6.258;2024-03-22T08:41:39;13.60;32.80
46898;DHT22;32646;50.958;6.258;2024-03-22T08:44:05;13.70;34.30
46898;DHT22;32646;50.958;6.258;2024-03-22T08:46:31;13.70;36.10
46898;DHT22;32646;50.958;6.258;2024-03-22T08:48:56;13.80;33.30
46898;DHT22;32646;50.958;6.258;2024-03-22T08:51:22;14.00;36.40
46898;DHT22;32646;50.958;6.258;2024-03-22T08:53:47;14.50;31.00
46898;DHT22;32646;50.958;6.258;2024-03-22T08:56:16;14.90;30.30
46898;DHT22;32646;50.958;6.258;2024-03-22T08:58:41;14.90;22.70
46898;DHT22;32646;50.958;6.258;2024-03-22T09:01:07;14.60;26.30
46898;DHT22;32646;50.958;6.258;2024-03-22T09:03:33;14.70;25.50
46898;DHT22;32646;50.958;6.258;2024-03-22T09:06:00;14.70;27.20
46898;DHT22;32646;50.958;6.258;2024-03-22T09:08:25;14.50;26.40
46898;DHT22;32646;50.958;6.258;2024-03-22T09:10:51;14.30;26.70
46898;DHT22;32646;50.958;6.258;2024-03-22T09:13:17;14.30;29.20
46898;DHT22;32646;50.958;6.258;2024-03-22T09:15:42;14.50;27.50
46898;DHT22;32646;50.958;6.258;2024-03-22T09:18:08;14.60;29.80
46898;DHT22;32646;50.958;6.258;2024-03-22T09:20:33;15.00;26.20
46898;DHT22;32646;50.958;6.258;2024-03-22T09:22:59;15.40;25.20
46898;DHT22;32646;50.958;6.258;2024-03-22T09:25:25;15.20;22.20
46898;DHT22;32646;50.958;6.258;2024-03-22T09:27:50;15.20;24.20
46898;DHT22;32646;50.958;6.258;2024-03-22T09:30:16;15.20;27.60
46898;DHT22;32646;50.958;6.258;2024-03-22T09:32:42;15.10;24.40
46898;DHT22;32646;50.958;6.258;2024-03-22T09:35:08;15.10;24.60
46898;DHT22;32646;50.958;6.258;2024-03-22T09:37:34;14.90;25.70
46898;DHT22;32646;50.958;6.258;2024-03-22T09:40:00;14.60;24.90
46898;DHT22;32646;50.958;6.258;2024-03-22T09:42:27;14.40;27.20
46898;DHT22;32646;50.958;6.258;2024-03-22T09:44:57;14.40;28.50
46898;DHT22;32646;50.958;6.258;2024-03-22T09:47:24;14.30;31.50
46898;DHT22;32646;50.958;6.258;2024-03-22T09:49:50;14.40;30.40
46898;DHT22;32646;50.958;6.258;2024-03-22T09:52:19;14.30;31.90
46898;DHT22;32646;50.958;6.258;2024-03-22T09:54:45;14.40;33.00
46898;DHT22;32646;50.958;6.258;2024-03-22T09:57:14;14.20;32.30
46898;DHT22;32646;50.958;6.258;2024-03-22T09:59:39;14.10;30.20
46898;DHT22;32646;50.958;6.258;2024-03-22T10:02:08;14.20;32.30
46898;DHT22;32646;50.958;6.258;2024-03-22T10:04:34;14.20;32.50
46898;DHT22;32646;50.958;6.258;2024-03-22T10:07:00;14.30;34.60
46898;DHT22;32646;50.958;6.258;2024-03-22T10:09:29;14.50;35.20
46898;DHT22;32646;50.958;6.258;2024-03-22T10:11:55;14.60;32.80
46898;DHT22;32646;50.958;6.258;2024-03-22T10:14:21;14.60;33.70
46898;DHT22;32646;50.958;6.258;2024-03-22T10:16:47;14.50;33.10
46898;DHT22;32646;50.958;6.258;2024-03-22T10:19:12;14.50;30.10
46898;DHT22;32646;50.958;6.258;2024-03-22T10:21:38;14.50;30.60
46898;DHT22;32646;50.958;6.258;2024-03-22T10:24:04;14.60;30.50
46898;DHT22;32646;50.958;6.258;2024-03-22T10:26:33;14.50;32.50
46898;DHT22;32646;50.958;6.258;2024-03-22T10:28:59;14.40;29.40
46898;DHT22;32646;50.958;6.258;2024-03-22T10:31:24;14.40;34.10
46898;DHT22;32646;50.958;6.258;2024-03-22T10:33:50;14.20;34.80
46898;DHT22;32646;50.958;6.258;2024-03-22T10:36:18;14.00;33.40
46898;DHT22;32646;50.958;6.258;2024-03-22T10:38:44;14.00;35.90
46898;DHT22;32646;50.958;6.258;2024-03-22T10:41:11;14.10;38.70
46898;DHT22;32646;50.958;6.258;2024-03-22T10:43:37;14.00;36.50
46898;DHT22;32646;50.958;6.258;2024-03-22T10:46:03;14.10;34.80
46898;DHT22;32646;50.958;6.258;2024-03-22T10:48:30;14.10;33.90
46898;DHT22;32646;50.958;6.258;2024-03-22T10:50:59;14.20;34.60
46898;DHT22;32646;50.958;6.258;2024-03-22T10:53:25;14.20;30.20
46898;DHT22;32646;50.958;6.258;2024-03-22T10:55:52;14.40;30.20
46898;DHT22;32646;50.958;6.258;2024-03-22T10:58:22;14.50;32.30
46898;DHT22;32646;50.958;6.258;2024-03-22T11:00:52;14.60;28.40
46898;DHT22;32646;50.958;6.258;2024-03-22T11:03:25;14.60;22.80
46898;DHT22;32646;50.958;6.258;2024-03-22T11:05:55;14.50;26.90
46898;DHT22;32646;50.958;6.258;2024-03-22T11:08:27;14.50;26.70
46898;DHT22;32646;50.958;6.258;2024-03-22T11:10:54;14.50;24.90
46898;DHT22;32646;50.958;6.258;2024-03-22T11:13:20;14.60;23.30
46898;DHT22;32646;50.958;6.258;2024-03-22T11:15:50;14.50;24.90
46898;DHT22;32646;50.958;6.258;2024-03-22T11:18:16;14.60;24.20
46898;DHT22;32646;50.958;6.258;2024-03-22T11:20:42;14.60;24.50
46898;DHT22;32646;50.958;6.258;2024-03-22T11:23:09;14.60;24.80
46898;DHT22;32646;50.958;6.258;2024-03-22T11:25:35;14.60;23.30
46898;DHT22;32646;50.958;6.258;2024-03-22T11:28:01;14.60;23.00
46898;DHT22;32646;50.958;6.258;2024-03-22T11:30:31;14.70;23.40
46898;DHT22;32646;50.958;6.258;2024-03-22T11:32:57;14.60;19.30
46898;DHT22;32646;50.958;6.258;2024-03-22T11:35:23;14.70;21.70
46898;DHT22;32646;50.958;6.258;2024-03-22T11:37:50;14.70;22.70
46898;DHT22;32646;50.958;6.258;2024-03-22T11:40:15;14.80;20.30
46898;DHT22;32646;50.958;6.258;2024-03-22T11:42:43;14.90;22.30
46898;DHT22;32646;50.958;6.258;2024-03-22T11:45:11;14.80;19.10
46898;DHT22;32646;50.958;6.258;2024-03-22T11:47:37;14.70;17.30
46898;DHT22;32646;50.958;6.258;2024-03-22T11:50:03;14.70;14.20
46898;DHT22;32646;50.958;6.258;2024-03-22T11:52:29;14.60;13.70
46898;DHT22;32646;50.958;6.258;2024-03-22T11:54:56;14.50;16.60
46898;DHT22;32646;50.958;6.258;2024-03-22T11:57:22;14.60;19.70
46898;DHT22;32646;50.958;6.258;2024-03-22T11:59:48;14.50;17.20
46898;DHT22;32646;50.958;6.258;2024-03-22T12:02:13;14.50;18.70
46898;DHT22;32646;50.958;6.258;2024-03-22T12:04:45;14.60;20.30
46898;DHT22;32646;50.958;6.258;2024-03-22T12:07:13;14.40;18.80
46898;DHT22;32646;50.958;6.258;2024-03-22T12:09:39;14.50;17.70
46898;DHT22;32646;50.958;6.258;2024-03-22T12:12:07;14.60;19.60
46898;DHT22;32646;50.958;6.258;2024-03-22T12:14:33;14.70;21.10
46898;DHT22;32646;50.958;6.258;2024-03-22T12:16:59;14.80;20.80
46898;DHT22;32646;50.958;6.258;2024-03-22T12:19:25;14.80;19.80
46898;DHT22;32646;50.958;6.258;2024-03-22T12:21:50;15.00;20.80
46898;DHT22;32646;50.958;6.258;2024-03-22T12:24:16;15.20;19.60
46898;DHT22;32646;50.958;6.258;2024-03-22T12:26:42;15.00;19.10
46898;DHT22;32646;50.958;6.258;2024-03-22T12:29:07;15.40;19.30
46898;DHT22;32646;50.958;6.258;2024-03-22T12:31:33;15.20;18.30
46898;DHT22;32646;50.958;6.258;2024-03-22T12:33:59;15.20;19.30
46898;DHT22;32646;50.958;6.258;2024-03-22T12:36:24;15.60;17.30
46898;DHT22;32646;50.958;6.258;2024-03-22T12:38:50;15.50;15.60
46898;DHT22;32646;50.958;6.258;2024-03-22T12:41:16;15.80;15.40
46898;DHT22;32646;50.958;6.258;2024-03-22T12:43:41;15.50;15.60
46898;DHT22;32646;50.958;6.258;2024-03-22T12:46:07;15.50;15.90
46898;DHT22;32646;50.958;6.258;2024-03-22T12:48:33;15.30;16.50
46898;DHT22;32646;50.958;6.258;2024-03-22T12:50:59;15.30;15.30
46898;DHT22;32646;50.958;6.258;2024-03-22T12:53:25;15.40;15.30
46898;DHT22;32646;50.958;6.258;2024-03-22T12:55:51;15.40;15.90
46898;DHT22;32646;50.958;6.258;2024-03-22T12:58:17;15.60;15.10
46898;DHT22;32646;50.958;6.258;2024-03-22T13:00:42;15.80;13.40
46898;DHT22;32646;50.958;6.258;2024-03-22T13:03:08;16.20;15.20
46898;DHT22;32646;50.958;6.258;2024-03-22T13:05:34;16.10;13.90
46898;DHT22;32646;50.958;6.258;2024-03-22T13:07:59;15.90;15.50
46898;DHT22;32646;50.958;6.258;2024-03-22T13:10:25;15.70;14.40
46898;DHT22;32646;50.958;6.258;2024-03-22T13:12:51;15.50;16.90
46898;DHT22;32646;50.958;6.258;2024-03-22T13:15:16;15.30;16.70
46898;DHT22;32646;50.958;6.258;2024-03-22T13:17:42;15.30;16.10
46898;DHT22;32646;50.958;6.258;2024-03-22T13:20:08;15.00;17.30
46898;DHT22;32646;50.958;6.258;2024-03-22T13:22:34;14.70;19.10
46898;DHT22;32646;50.958;6.258;2024-03-22T13:24:59;14.60;19.90
46898;DHT22;32646;50.958;6.258;2024-03-22T13:27:25;14.50;21.10
46898;DHT22;32646;50.958;6.258;2024-03-22T13:29:51;14.40;21.10
46898;DHT22;32646;50.958;6.258;2024-03-22T13:32:16;14.30;21.40
46898;DHT22;32646;50.958;6.258;2024-03-22T13:34:43;14.20;22.90
46898;DHT22;32646;50.958;6.258;2024-03-22T13:37:08;14.30;21.90
46898;DHT22;32646;50.958;6.258;2024-03-22T13:39:34;14.60;21.40
46898;DHT22;32646;50.958;6.258;2024-03-22T13:42:01;14.90;21.60
46898;DHT22;32646;50.958;6.258;2024-03-22T13:44:27;14.90;21.90
46898;DHT22;32646;50.958;6.258;2024-03-22T13:46:53;14.70;23.10
46898;DHT22;32646;50.958;6.258;2024-03-22T13:49:19;14.70;22.60
46898;DHT22;32646;50.958;6.258;2024-03-22T13:51:45;14.80;22.20
46898;DHT22;32646;50.958;6.258;2024-03-22T13:54:12;14.70;22.50
46898;DHT22;32646;50.958;6.258;2024-03-22T13:56:38;14.80;24.00
46898;DHT22;32646;50.958;6.258;2024-03-22T13:59:04;14.80;21.60
46898;DHT22;32646;50.958;6.258;2024-03-22T14:01:30;14.70;22.70
46898;DHT22;32646;50.958;6.258;2024-03-22T14:03:55;14.70;23.00
46898;DHT22;32646;50.958;6.258;2024-03-22T14:06:21;14.40;24.70
46898;DHT22;32646;50.958;6.258;2024-03-22T14:08:46;14.30;24.90
46898;DHT22;32646;50.958;6.258;2024-03-22T14:11:12;14.30;25.20
46898;DHT22;32646;50.958;6.258;2024-03-22T14:13:38;14.30;27.20
46898;DHT22;32646;50.958;6.258;2024-03-22T14:16:04;14.20;26.80
46898;DHT22;32646;50.958;6.258;2024-03-22T14:18:29;14.30;26.20
46898;DHT22;32646;50.958;6.258;2024-03-22T14:20:55;14.40;26.60
46898;DHT22;32646;50.958;6.258;2024-03-22T14:23:21;14.50;26.60
46898;DHT22;32646;50.958;6.258;2024-03-22T14:25:46;14.70;25.50
46898;DHT22;32646;50.958;6.258;2024-03-22T14:28:12;14.60;24.80
46898;DHT22;32646;50.958;6.258;2024-03-22T14:30:37;14.50;25.00
46898;DHT22;32646;50.958;6.258;2024-03-22T14:33:03;14.40;28.20
46898;DHT22;32646;50.958;6.258;2024-03-22T14:35:29;14.30;26.90
46898;DHT22;32646;50.958;6.258;2024-03-22T14:37:55;14.20;27.00
46898;DHT22;32646;50.958;6.258;2024-03-22T14:40:20;14.10;27.80
46898;DHT22;32646;50.958;6.258;2024-03-22T14:42:46;14.10;28.90
46898;DHT22;32646;50.958;6.258;2024-03-22T14:45:12;14.00;29.80
46898;DHT22;32646;50.958;6.258;2024-03-22T14:47:37;14.00;29.50
46898;DHT22;32646;50.958;6.258;2024-03-22T14:50:03;13.70;29.40
46898;DHT22;32646;50.958;6.258;2024-03-22T14:52:29;13.70;31.20
46898;DHT22;32646;50.958;6.258;2024-03-22T14:54:55;13.50;35.90
46898;DHT22;32646;50.958;6.258;2024-03-22T14:57:21;13.50;37.40
46898;DHT22;32646;50.958;6.258;2024-03-22T14:59:46;13.30;39.40
46898;DHT22;32646;50.958;6.258;2024-03-22T15:02:12;13.50;37.50
46898;DHT22;32646;50.958;6.258;2024-03-22T15:04:38;13.40;37.20
46898;DHT22;32646;50.958;6.258;2024-03-22T15:07:04;13.40;36.90
46898;DHT22;32646;50.958;6.258;2024-03-22T15:09:29;13.20;36.40
46898;DHT22;32646;50.958;6.258;2024-03-22T15:11:55;13.10;40.30
46898;DHT22;32646;50.958;6.258;2024-03-22T15:14:21;13.10;41.50
46898;DHT22;32646;50.958;6.258;2024-03-22T15:16:46;13.10;39.60
46898;DHT22;32646;50.958;6.258;2024-03-22T15:19:12;13.10;37.90
46898;DHT22;32646;50.958;6.258;2024-03-22T15:21:38;13.00;40.10